createdAt,value
2018-07-13T00:01:40.301Z,16.50
2018-07-13T00:05:43.663Z,13.20
2018-07-13T00:09:47.028Z,12.00
2018-07-13T00:14:21.858Z,10.73
2018-07-13T00:18:25.219Z,11.33
2018-07-13T00:22:28.587Z,15.03
2018-07-13T00:26:31.956Z,12.57
2018-07-13T00:30:35.318Z,13.97
2018-07-13T00:34:38.790Z,18.20
2018-07-13T00:38:42.293Z,15.93
2018-07-13T00:42:45.645Z,16.67
2018-07-13T00:46:49.007Z,17.73
2018-07-13T00:50:52.371Z,15.53
2018-07-13T00:54:55.695Z,18.07
2018-07-13T00:58:59.067Z,15.20
2018-07-13T01:03:03.936Z,19.17
2018-07-13T01:07:07.388Z,24.93
2018-07-13T01:11:10.763Z,20.90
2018-07-13T01:15:14.143Z,30.10
2018-07-13T01:19:18.247Z,34.97
2018-07-13T01:23:21.613Z,44.37
2018-07-13T01:27:28.471Z,50.50
2018-07-13T01:31:31.819Z,50.13
2018-07-13T01:35:35.176Z,57.80
2018-07-13T01:39:38.550Z,57.43
2018-07-13T01:43:41.915Z,56.13
2018-07-13T01:47:45.462Z,50.93
2018-07-13T01:51:48.899Z,56.53
2018-07-13T01:55:52.243Z,58.83
2018-07-13T01:59:55.622Z,61.30
2018-07-13T02:03:59.019Z,67.20
2018-07-13T02:08:02.408Z,63.00
2018-07-13T02:12:05.902Z,71.87
2018-07-13T02:16:09.280Z,65.17
2018-07-13T02:20:12.723Z,68.50
2018-07-13T02:24:16.112Z,76.53
2018-07-13T02:28:19.487Z,73.83
2018-07-13T02:32:22.840Z,70.17
2018-07-13T02:36:26.196Z,69.63
2018-07-13T02:40:29.549Z,56.93
2018-07-13T02:44:32.991Z,38.70
2018-07-13T02:48:36.343Z,32.83
2018-07-13T02:52:39.728Z,27.27
2018-07-13T02:56:43.100Z,23.80
2018-07-13T03:00:46.292Z,24.13
2018-07-13T03:04:49.651Z,20.00
2018-07-13T03:08:53.002Z,23.83
2018-07-13T03:12:57.180Z,25.90
2018-07-13T03:17:07.076Z,23.73
2018-07-13T03:21:10.455Z,26.13
2018-07-13T03:25:13.908Z,25.87
2018-07-13T03:29:17.267Z,25.17
2018-07-13T03:33:20.623Z,27.13
2018-07-13T03:37:24.119Z,22.60
2018-07-13T03:41:27.591Z,25.03
2018-07-13T03:45:31.038Z,21.70
2018-07-13T03:49:34.391Z,23.77
2018-07-13T03:53:42.920Z,24.53
2018-07-13T03:57:46.339Z,32.53
2018-07-13T04:01:49.727Z,27.50
2018-07-13T04:05:53.100Z,24.47
2018-07-13T04:09:56.463Z,25.03
2018-07-13T04:13:59.839Z,24.90
2018-07-13T04:18:03.237Z,22.53
2018-07-13T04:22:06.620Z,29.23
2018-07-13T04:26:10.079Z,23.70
2018-07-13T04:30:13.512Z,22.57
2018-07-13T04:34:16.902Z,26.30
2018-07-13T04:38:20.247Z,24.33
2018-07-13T04:42:23.559Z,24.53
2018-07-13T04:46:27.008Z,24.80
2018-07-13T04:50:30.372Z,27.80
2018-07-13T04:54:33.750Z,25.97
2018-07-13T04:58:37.447Z,27.83
2018-07-13T05:02:40.796Z,22.63
2018-07-13T05:06:44.156Z,27.87
2018-07-13T05:10:47.538Z,28.83
2018-07-13T05:14:51.283Z,25.47
2018-07-13T05:18:54.750Z,25.97
2018-07-13T05:22:58.186Z,23.10
2018-07-13T05:27:01.571Z,32.63
2018-07-13T05:31:05.079Z,26.53
2018-07-13T05:35:08.471Z,26.73
2018-07-13T05:39:12.529Z,30.37
2018-07-13T05:43:15.902Z,22.70
2018-07-13T05:47:19.259Z,22.77
2018-07-13T05:51:22.663Z,26.70
2018-07-13T05:55:26.051Z,19.67
2018-07-13T05:59:29.426Z,20.93
2018-07-13T06:03:32.843Z,22.67
2018-07-13T06:07:36.372Z,26.47
2018-07-13T06:11:40.617Z,24.00
2018-07-13T06:15:44.028Z,20.60
2018-07-13T06:19:47.411Z,23.30
2018-07-13T06:23:50.759Z,22.60
2018-07-13T06:27:54.087Z,21.50
2018-07-13T06:31:57.447Z,27.17
2018-07-13T06:36:00.823Z,23.53
2018-07-13T06:40:04.307Z,25.10
2018-07-13T06:44:07.721Z,22.10
2018-07-13T06:48:11.275Z,26.13
2018-07-13T06:52:14.750Z,23.53
2018-07-13T06:56:18.104Z,20.63
2018-07-13T07:01:04.170Z,22.07
2018-07-13T07:06:17.418Z,23.27
2018-07-13T07:10:20.891Z,19.53
2018-07-13T07:14:24.256Z,18.13
2018-07-13T07:18:27.677Z,18.17
2018-07-13T07:22:31.039Z,21.23
2018-07-13T07:26:34.414Z,22.23
2018-07-13T07:30:37.911Z,22.20
2018-07-13T07:34:41.243Z,30.23
2018-07-13T07:38:44.619Z,22.83
2018-07-13T07:42:48.006Z,23.60
2018-07-13T07:46:51.355Z,21.27
2018-07-13T07:50:54.726Z,24.40
2018-07-13T07:54:58.055Z,18.63
2018-07-13T07:59:01.407Z,25.60
2018-07-13T08:03:05.257Z,21.67
2018-07-13T08:07:08.737Z,16.37
2018-07-13T08:11:11.822Z,15.53
2018-07-13T08:15:15.187Z,18.23
2018-07-13T08:19:21.492Z,18.63
2018-07-13T08:23:24.863Z,17.33
2018-07-13T08:27:44.041Z,16.70
2018-07-13T08:31:47.472Z,16.73
2018-07-13T08:35:50.827Z,15.77
2018-07-13T08:39:54.250Z,14.80
2018-07-13T08:43:57.670Z,22.00
2018-07-13T08:48:01.045Z,16.10
2018-07-13T08:52:04.459Z,18.13
2018-07-13T08:56:07.887Z,13.43
2018-07-13T09:00:11.366Z,18.20
2018-07-13T09:04:14.731Z,18.33
2018-07-13T09:08:18.328Z,15.20
2018-07-13T09:12:21.738Z,17.70
2018-07-13T09:16:25.158Z,15.63
2018-07-13T09:20:28.519Z,17.07
2018-07-13T09:24:31.867Z,15.07
2018-07-13T09:28:35.256Z,19.40
2018-07-13T09:32:38.655Z,16.60
2018-07-13T09:36:42.080Z,13.27
2018-07-13T09:40:45.452Z,15.43
2018-07-13T09:44:48.823Z,16.07
2018-07-13T09:48:52.195Z,14.77
2018-07-13T09:52:55.593Z,16.13
2018-07-13T09:56:58.947Z,14.30
2018-07-13T10:01:07.624Z,14.50
2018-07-13T10:05:11.002Z,13.93
2018-07-13T10:09:14.383Z,14.03
2018-07-13T10:13:17.741Z,18.03
2018-07-13T10:17:21.116Z,16.50
2018-07-13T10:21:24.578Z,18.33
2018-07-13T10:25:28.791Z,24.03
2018-07-13T10:29:35.475Z,20.37
2018-07-13T10:33:38.930Z,23.20
2018-07-13T10:37:42.886Z,16.10
2018-07-13T10:41:46.204Z,13.20
2018-07-13T10:45:49.604Z,16.30
2018-07-13T10:49:52.991Z,13.53
2018-07-13T10:53:56.335Z,16.63
2018-07-13T10:58:00.207Z,15.17
2018-07-13T11:02:03.566Z,9.83
2018-07-13T11:06:06.919Z,12.70
2018-07-13T11:10:10.511Z,12.73
2018-07-13T11:14:13.867Z,12.33
2018-07-13T11:18:16.930Z,11.60
2018-07-13T11:22:20.255Z,13.23
2018-07-13T11:26:23.700Z,18.43
2018-07-13T11:30:27.124Z,15.47
2018-07-13T11:34:30.826Z,11.53
2018-07-13T11:38:34.449Z,12.37
2018-07-13T11:42:38.152Z,11.90
2018-07-13T11:46:41.524Z,11.93
2018-07-13T11:50:44.894Z,11.63
2018-07-13T11:54:48.234Z,10.13
2018-07-13T11:58:51.566Z,13.23
2018-07-13T12:02:54.944Z,12.90
2018-07-13T12:06:58.257Z,14.10
2018-07-13T12:11:01.596Z,17.83
2018-07-13T12:15:04.999Z,10.90
2018-07-13T12:19:08.737Z,14.27
2018-07-13T12:23:12.350Z,10.50
2018-07-13T12:27:15.621Z,14.67
2018-07-13T12:31:19.022Z,11.33
2018-07-13T12:35:22.367Z,13.83
2018-07-13T12:39:25.806Z,12.77
2018-07-13T12:43:29.088Z,14.80
2018-07-13T12:47:32.411Z,11.73
2018-07-13T12:51:35.796Z,10.10
2018-07-13T12:55:39.122Z,9.33
2018-07-13T12:59:42.584Z,11.10
2018-07-13T13:03:46.001Z,13.97
2018-07-13T13:07:49.842Z,14.67
2018-07-13T13:11:53.232Z,7.87
2018-07-13T13:15:56.627Z,11.60
2018-07-13T13:19:59.983Z,12.20
2018-07-13T13:24:03.367Z,10.03
2018-07-13T13:28:06.710Z,13.17
2018-07-13T13:32:10.064Z,10.10
2018-07-13T13:36:13.431Z,11.33
2018-07-13T13:40:16.790Z,7.77
2018-07-13T13:44:20.146Z,12.30
2018-07-13T13:48:23.564Z,12.87
2018-07-13T13:52:26.887Z,10.73
2018-07-13T13:56:30.245Z,9.87
2018-07-13T14:00:33.590Z,10.23
2018-07-13T14:04:36.935Z,12.73
2018-07-13T14:08:40.434Z,9.73
2018-07-13T14:12:43.773Z,7.43
2018-07-13T14:16:47.126Z,8.03
2018-07-13T14:20:50.482Z,6.90
2018-07-13T14:24:53.840Z,7.57
2018-07-13T14:28:57.179Z,10.63
2018-07-13T14:33:00.526Z,13.03
2018-07-13T14:37:03.935Z,8.13
2018-07-13T14:41:07.275Z,10.70
2018-07-13T14:45:10.611Z,8.53
2018-07-13T14:49:13.957Z,9.00
2018-07-13T14:53:17.344Z,9.77
2018-07-13T14:57:21.080Z,6.57
2018-07-13T15:01:24.539Z,6.53
2018-07-13T15:05:27.914Z,6.47
2018-07-13T15:09:31.242Z,11.80
2018-07-13T15:13:34.643Z,5.63
2018-07-13T15:17:38.124Z,5.93
2018-07-13T15:21:41.454Z,5.67
2018-07-13T15:25:44.833Z,6.73
2018-07-13T15:29:48.202Z,7.70
2018-07-13T15:33:51.559Z,5.93
2018-07-13T15:37:54.962Z,6.93
2018-07-13T15:41:58.294Z,6.20
2018-07-13T15:46:01.657Z,7.93
2018-07-13T15:50:05.021Z,5.50
2018-07-13T15:54:08.395Z,5.87
2018-07-13T15:58:11.734Z,4.67
2018-07-13T16:02:15.071Z,4.93
2018-07-13T16:06:18.727Z,4.97
2018-07-13T16:10:22.038Z,5.60
2018-07-13T16:14:25.398Z,10.37
2018-07-13T16:18:28.728Z,6.37
2018-07-13T16:22:32.051Z,7.47
2018-07-13T16:26:35.404Z,8.07
2018-07-13T16:30:38.723Z,5.27
2018-07-13T16:34:42.059Z,8.28
2018-07-13T16:38:45.461Z,6.78
2018-07-13T16:42:48.907Z,5.33
2018-07-13T16:46:52.235Z,9.00
2018-07-13T16:50:55.669Z,7.60
2018-07-13T16:54:58.951Z,6.53
2018-07-13T16:59:02.280Z,5.80
2018-07-13T17:03:05.655Z,6.60
2018-07-13T17:07:09.093Z,5.07
2018-07-13T17:11:12.617Z,10.10
2018-07-13T17:15:16.154Z,5.00
2018-07-13T17:19:19.553Z,5.73
2018-07-13T17:23:22.883Z,6.63
2018-07-13T17:27:26.228Z,10.83
2018-07-13T17:31:29.707Z,8.30
2018-07-13T17:35:33.031Z,8.00
2018-07-13T17:39:36.422Z,6.53
2018-07-13T17:43:39.755Z,10.97
2018-07-13T17:47:43.148Z,28.37
2018-07-13T17:51:46.483Z,8.30
2018-07-13T17:55:49.805Z,10.03
2018-07-13T17:59:53.155Z,6.50
2018-07-13T18:03:56.937Z,6.37
2018-07-13T18:08:00.336Z,6.33
2018-07-13T18:12:03.730Z,7.77
2018-07-13T18:16:07.069Z,9.17
2018-07-13T18:20:10.467Z,7.00
2018-07-13T18:24:13.810Z,5.93
2018-07-13T18:28:17.232Z,7.80
2018-07-13T18:32:20.526Z,7.83
2018-07-13T18:36:23.863Z,9.37
2018-07-13T18:40:27.283Z,8.97
2018-07-13T18:44:30.667Z,11.20
2018-07-13T18:48:34.004Z,9.67
2018-07-13T18:52:37.351Z,14.87
2018-07-13T18:56:40.699Z,12.40
2018-07-13T19:00:44.037Z,8.47
2018-07-13T19:04:47.396Z,9.97
2018-07-13T19:08:50.727Z,9.57
2018-07-13T19:12:54.093Z,10.40
2018-07-13T19:16:57.541Z,9.60
2018-07-13T19:21:00.876Z,13.57
2018-07-13T19:25:04.298Z,8.23
2018-07-13T19:29:08.186Z,10.20
2018-07-13T19:33:11.583Z,8.23
2018-07-13T19:37:15.474Z,9.03
2018-07-13T19:41:19.399Z,8.77
2018-07-13T19:45:22.835Z,10.17
2018-07-13T19:49:26.867Z,10.10
2018-07-13T19:53:30.291Z,10.10
2018-07-13T19:57:33.595Z,7.40
2018-07-13T20:01:36.997Z,9.63
2018-07-13T20:05:40.320Z,13.93
2018-07-13T20:09:43.709Z,8.70
2018-07-13T20:13:47.105Z,8.33
2018-07-13T20:17:50.455Z,10.50
2018-07-13T20:21:53.799Z,10.23
2018-07-13T20:25:57.142Z,9.13
2018-07-13T20:30:00.479Z,9.10
2018-07-13T20:34:03.831Z,11.63
2018-07-13T20:38:07.219Z,11.33
2018-07-13T20:42:10.579Z,10.93
2018-07-13T20:46:13.923Z,8.10
2018-07-13T20:50:17.259Z,10.13
2018-07-13T20:54:20.695Z,11.40
2018-07-13T20:58:24.025Z,10.67
2018-07-13T21:02:27.555Z,8.73
2018-07-13T21:06:30.927Z,8.70
2018-07-13T21:10:34.317Z,8.73
2018-07-13T21:14:37.716Z,9.13
2018-07-13T21:18:41.066Z,9.50
2018-07-13T21:22:44.443Z,9.43
2018-07-13T21:26:47.888Z,8.93
2018-07-13T21:30:51.256Z,10.23
2018-07-13T21:34:54.952Z,7.37
2018-07-13T21:38:58.299Z,9.53
2018-07-13T21:43:01.664Z,6.57
2018-07-13T21:47:05.156Z,10.83
2018-07-13T21:51:08.571Z,8.57
2018-07-13T21:55:12.053Z,8.43
2018-07-13T21:59:16.182Z,10.77
2018-07-13T22:03:20.806Z,9.63
2018-07-13T22:07:26.007Z,8.23
2018-07-13T22:11:30.840Z,13.97
2018-07-13T22:15:35.752Z,9.03
2018-07-13T22:19:41.812Z,7.07
2018-07-13T22:23:46.470Z,10.53
2018-07-13T22:27:49.852Z,9.63
2018-07-13T22:31:53.258Z,9.10
2018-07-13T22:35:56.622Z,7.67
2018-07-13T22:39:59.971Z,7.43
2018-07-13T22:44:03.415Z,6.90
2018-07-13T22:48:06.792Z,8.43
2018-07-13T22:52:10.147Z,9.03
2018-07-13T22:56:13.483Z,7.50
2018-07-13T23:00:16.863Z,8.37
2018-07-13T23:04:20.211Z,7.70
2018-07-13T23:08:23.547Z,7.90
2018-07-13T23:12:27.095Z,7.60
2018-07-13T23:16:30.493Z,8.33
2018-07-13T23:20:33.851Z,8.13
2018-07-13T23:24:37.267Z,8.07
2018-07-13T23:28:40.631Z,7.83
2018-07-13T23:32:43.975Z,9.73
2018-07-13T23:36:47.452Z,7.63
2018-07-13T23:40:50.819Z,7.17
2018-07-13T23:44:54.258Z,8.77
2018-07-13T23:48:57.635Z,10.17
2018-07-13T23:53:01.108Z,7.90
2018-07-13T23:57:04.307Z,8.07
